createdAt,value
2023-05-01T00:00:53.873Z,10.00
2023-05-01T00:03:20.995Z,9.77
2023-05-01T00:05:48.250Z,9.80
2023-05-01T00:08:15.837Z,10.83
2023-05-01T00:10:43.060Z,9.40
2023-05-01T00:13:10.321Z,10.20
2023-05-01T00:15:37.448Z,10.73
2023-05-01T00:18:04.578Z,10.67
2023-05-01T00:20:31.646Z,9.83
2023-05-01T00:22:58.734Z,10.37
2023-05-01T00:25:25.760Z,9.60
2023-05-01T00:27:52.779Z,10.80
2023-05-01T00:30:19.797Z,10.77
2023-05-01T00:32:46.926Z,9.53
2023-05-01T00:35:13.981Z,10.40
2023-05-01T00:37:41.015Z,9.90
2023-05-01T00:40:08.513Z,9.90
2023-05-01T00:42:37.087Z,9.53
2023-05-01T00:45:04.237Z,10.03
2023-05-01T00:47:31.318Z,10.87
2023-05-01T00:49:58.706Z,10.90
2023-05-01T00:52:25.991Z,10.50
2023-05-01T00:54:53.058Z,10.60
2023-05-01T00:57:23.261Z,11.33
2023-05-01T00:59:50.295Z,10.30
2023-05-01T01:02:17.306Z,10.87
2023-05-01T01:04:47.806Z,10.07
2023-05-01T01:07:36.126Z,10.90
2023-05-01T01:10:18.363Z,10.63
2023-05-01T01:12:51.383Z,10.07
2023-05-01T01:15:27.577Z,10.63
2023-05-01T01:18:06.900Z,10.50
2023-05-01T01:20:38.640Z,9.93
2023-05-01T01:23:25.023Z,10.03
2023-05-01T01:26:10.610Z,11.03
2023-05-01T01:28:52.746Z,11.95
2023-05-01T01:31:29.996Z,10.47
2023-05-01T01:34:02.489Z,10.70
2023-05-01T01:36:39.579Z,10.70
2023-05-01T01:39:21.464Z,10.17
2023-05-01T01:41:50.998Z,10.67
2023-05-01T01:44:23.473Z,10.30
2023-05-01T01:46:51.883Z,10.20
2023-05-01T01:49:21.111Z,9.67
2023-05-01T01:51:49.260Z,10.03
2023-05-01T01:54:19.147Z,9.27
2023-05-01T01:56:47.078Z,10.47
2023-05-01T01:59:14.542Z,10.20
2023-05-01T02:01:42.311Z,10.07
2023-05-01T02:04:10.590Z,11.32
2023-05-01T02:06:38.837Z,11.43
2023-05-01T02:09:07.578Z,9.60
2023-05-01T02:11:37.711Z,10.40
2023-05-01T02:14:05.186Z,10.07
2023-05-01T02:16:34.095Z,10.00
2023-05-01T02:19:02.074Z,10.70
2023-05-01T02:21:31.102Z,10.77
2023-05-01T02:23:59.836Z,9.37
2023-05-01T02:26:27.656Z,11.03
2023-05-01T02:28:54.826Z,10.17
2023-05-01T02:31:23.041Z,9.83
2023-05-01T02:33:50.206Z,10.70
2023-05-01T02:36:17.287Z,10.00
2023-05-01T02:38:46.953Z,9.73
2023-05-01T02:41:14.988Z,10.43
2023-05-01T02:43:42.074Z,11.05
2023-05-01T02:46:11.014Z,9.83
2023-05-01T02:48:38.975Z,10.17
2023-05-01T02:51:06.596Z,10.27
2023-05-01T02:53:34.187Z,10.23
2023-05-01T02:56:01.260Z,10.23
2023-05-01T02:58:32.512Z,9.90
2023-05-01T03:00:59.535Z,10.10
2023-05-01T03:03:27.853Z,9.60
2023-05-01T03:05:54.951Z,9.53
2023-05-01T03:08:22.238Z,10.20
2023-05-01T03:10:49.295Z,9.70
2023-05-01T03:13:16.772Z,9.97
2023-05-01T03:15:44.779Z,10.43
2023-05-01T03:18:11.872Z,9.93
2023-05-01T03:20:39.042Z,9.20
2023-05-01T03:23:06.691Z,9.67
2023-05-01T03:25:33.876Z,9.30
2023-05-01T03:28:00.878Z,10.40
2023-05-01T03:30:28.001Z,9.17
2023-05-01T03:32:55.269Z,9.80
2023-05-01T03:35:22.495Z,9.27
2023-05-01T03:37:49.568Z,10.37
2023-05-01T03:40:16.688Z,9.87
2023-05-01T03:42:43.781Z,9.40
2023-05-01T03:45:11.140Z,9.80
2023-05-01T03:47:38.194Z,9.37
2023-05-01T03:50:05.377Z,9.67
2023-05-01T03:52:32.353Z,9.83
2023-05-01T03:54:59.410Z,9.50
2023-05-01T03:57:27.256Z,10.40
2023-05-01T03:59:55.215Z,9.60
2023-05-01T04:02:22.629Z,9.47
2023-05-01T04:04:49.821Z,9.40
2023-05-01T04:07:16.938Z,8.77
2023-05-01T04:09:43.979Z,9.20
2023-05-01T04:12:11.117Z,9.47
2023-05-01T04:14:38.151Z,10.00
2023-05-01T04:17:05.174Z,9.50
2023-05-01T04:19:32.169Z,9.43
2023-05-01T04:21:59.315Z,8.70
2023-05-01T04:24:26.346Z,9.20
2023-05-01T04:26:53.413Z,10.90
2023-05-01T04:29:20.723Z,9.37
2023-05-01T04:31:47.810Z,9.70
2023-05-01T04:34:14.934Z,10.10
2023-05-01T04:36:41.950Z,8.83
2023-05-01T04:39:08.953Z,9.50
2023-05-01T04:41:35.978Z,9.73
2023-05-01T04:44:03.079Z,9.23
2023-05-01T04:46:30.376Z,9.03
2023-05-01T04:48:57.380Z,8.80
2023-05-01T04:51:24.425Z,9.03
2023-05-01T04:53:51.467Z,8.13
2023-05-01T04:56:18.489Z,8.23
2023-05-01T04:58:45.586Z,8.60
2023-05-01T05:01:12.701Z,9.60
2023-05-01T05:03:39.879Z,9.70
2023-05-01T05:06:07.000Z,9.67
2023-05-01T05:08:34.534Z,9.80
2023-05-01T05:11:01.983Z,10.00
2023-05-01T05:13:29.096Z,9.77
2023-05-01T05:15:56.202Z,9.77
2023-05-01T05:18:23.311Z,9.23
2023-05-01T05:20:50.518Z,9.33
2023-05-01T05:23:17.577Z,8.93
2023-05-01T05:25:44.594Z,9.70
2023-05-01T05:28:11.628Z,9.17
2023-05-01T05:30:38.644Z,9.67
2023-05-01T05:33:08.756Z,9.93
2023-05-01T05:35:35.864Z,10.13
2023-05-01T05:38:03.058Z,9.80
2023-05-01T05:40:30.147Z,10.27
2023-05-01T05:42:57.216Z,9.77
2023-05-01T05:45:24.348Z,10.20
2023-05-01T05:47:51.491Z,8.57
2023-05-01T05:50:18.542Z,9.93
2023-05-01T05:52:45.716Z,10.50
2023-05-01T05:55:12.813Z,9.50
2023-05-01T05:57:39.815Z,10.43
2023-05-01T06:00:07.619Z,10.13
2023-05-01T06:02:34.765Z,10.70
2023-05-01T06:05:01.836Z,10.50
2023-05-01T06:07:28.983Z,10.57
2023-05-01T06:10:01.438Z,10.97
2023-05-01T06:12:28.823Z,10.93
2023-05-01T06:14:56.314Z,11.20
2023-05-01T06:17:23.422Z,11.77
2023-05-01T06:19:52.308Z,10.93
2023-05-01T06:22:19.828Z,11.60
2023-05-01T06:24:46.985Z,10.77
2023-05-01T06:27:14.118Z,11.30
2023-05-01T06:29:41.206Z,10.60
2023-05-01T06:32:07.994Z,9.83
2023-05-01T06:34:34.682Z,10.50
2023-05-01T06:37:05.068Z,10.17
2023-05-01T06:39:33.196Z,9.33
2023-05-01T06:42:02.987Z,9.40
2023-05-01T06:44:32.730Z,10.80
2023-05-01T06:47:02.985Z,10.23
2023-05-01T06:49:32.210Z,10.67
2023-05-01T06:52:11.482Z,9.57
2023-05-01T06:54:41.716Z,9.30
2023-05-01T06:57:11.929Z,9.73
2023-05-01T06:59:42.322Z,9.73
2023-05-01T07:02:12.590Z,9.40
2023-05-01T07:04:44.414Z,9.63
2023-05-01T07:07:16.968Z,9.10
2023-05-01T07:09:47.290Z,10.27
2023-05-01T07:12:19.554Z,9.80
2023-05-01T07:14:49.876Z,9.30
2023-05-01T07:17:20.103Z,8.80
2023-05-01T07:19:50.570Z,8.70
2023-05-01T07:22:20.986Z,9.37
2023-05-01T07:24:51.321Z,8.03
2023-05-01T07:27:26.228Z,7.37
2023-05-01T07:29:58.606Z,7.97
2023-05-01T07:32:27.819Z,7.97
2023-05-01T07:34:55.021Z,7.70
2023-05-01T07:37:22.048Z,7.37
2023-05-01T07:39:49.031Z,7.77
2023-05-01T07:42:16.040Z,7.50
2023-05-01T07:44:43.027Z,7.43
2023-05-01T07:47:10.045Z,7.00
2023-05-01T07:49:40.360Z,7.87
2023-05-01T07:52:08.320Z,7.73
2023-05-01T07:54:35.363Z,7.47
2023-05-01T07:57:05.243Z,6.83
2023-05-01T07:59:32.237Z,7.30
2023-05-01T08:01:59.279Z,6.00
2023-05-01T08:04:28.121Z,6.50
2023-05-01T08:06:55.777Z,6.53
2023-05-01T08:09:22.823Z,6.82
2023-05-01T08:11:49.835Z,6.93
2023-05-01T08:14:19.897Z,7.18
2023-05-01T08:16:47.003Z,6.97
2023-05-01T08:19:14.117Z,7.03
2023-05-01T08:21:41.140Z,6.97
2023-05-01T08:24:10.728Z,7.97
2023-05-01T08:26:38.254Z,7.60
2023-05-01T08:29:05.258Z,7.07
2023-05-01T08:31:32.344Z,6.53
2023-05-01T08:33:59.397Z,7.90
2023-05-01T08:36:27.283Z,6.87
2023-05-01T08:38:54.312Z,6.73
2023-05-01T08:41:23.727Z,7.33
2023-05-01T08:43:50.876Z,7.53
2023-05-01T08:46:25.821Z,7.60
2023-05-01T08:48:55.663Z,7.10
2023-05-01T08:51:23.115Z,7.97
2023-05-01T08:53:52.149Z,6.70
2023-05-01T08:56:20.262Z,7.20
2023-05-01T08:58:50.309Z,6.70
2023-05-01T09:01:17.467Z,6.73
2023-05-01T09:03:44.959Z,6.63
2023-05-01T09:06:13.363Z,7.07
2023-05-01T09:08:40.593Z,6.87
2023-05-01T09:11:07.656Z,6.63
2023-05-01T09:13:34.829Z,6.60
2023-05-01T09:16:01.938Z,6.30
2023-05-01T09:18:29.045Z,7.13
2023-05-01T09:20:56.240Z,6.33
2023-05-01T09:23:23.423Z,6.68
2023-05-01T09:25:52.080Z,6.53
2023-05-01T09:28:19.164Z,6.93
2023-05-01T09:30:46.331Z,6.67
2023-05-01T09:33:14.421Z,6.63
2023-05-01T09:35:59.666Z,6.87
2023-05-01T09:38:29.237Z,6.80
2023-05-01T09:41:04.202Z,6.63
2023-05-01T09:43:31.816Z,6.50
2023-05-01T09:46:11.939Z,6.33
2023-05-01T09:48:39.444Z,6.03
2023-05-01T09:51:20.662Z,6.37
2023-05-01T09:53:47.743Z,6.20
2023-05-01T09:56:14.736Z,6.60
2023-05-01T09:58:41.774Z,6.67
2023-05-01T10:01:08.996Z,7.23
2023-05-01T10:03:36.327Z,7.30
2023-05-01T10:06:04.226Z,6.67
2023-05-01T10:08:50.889Z,6.63
2023-05-01T10:11:17.957Z,6.77
2023-05-01T10:13:45.061Z,6.73
2023-05-01T10:16:31.424Z,6.43
2023-05-01T10:18:58.633Z,7.00
2023-05-01T10:21:25.975Z,6.50
2023-05-01T10:23:53.509Z,6.63
2023-05-01T10:26:20.733Z,7.73
2023-05-01T10:28:49.715Z,6.30
2023-05-01T10:31:17.131Z,6.70
2023-05-01T10:33:45.344Z,7.60
2023-05-01T10:36:16.301Z,8.00
2023-05-01T10:38:48.198Z,8.07
2023-05-01T10:41:16.700Z,8.37
2023-05-01T10:43:44.018Z,8.20
2023-05-01T10:46:11.052Z,7.73
2023-05-01T10:48:42.163Z,7.20
2023-05-01T10:51:17.792Z,7.70
2023-05-01T10:53:46.281Z,6.50
2023-05-01T10:56:26.076Z,7.20
2023-05-01T10:58:53.050Z,7.00
2023-05-01T11:01:30.015Z,7.67
2023-05-01T11:03:57.695Z,7.27
2023-05-01T11:06:25.242Z,7.77
2023-05-01T11:08:52.415Z,6.93
2023-05-01T11:11:25.430Z,7.57
2023-05-01T11:13:59.289Z,6.27
2023-05-01T11:16:45.939Z,6.82
2023-05-01T11:19:34.150Z,6.93
2023-05-01T11:22:01.534Z,7.80
2023-05-01T11:24:32.928Z,6.70
2023-05-01T11:27:00.185Z,6.57
2023-05-01T11:29:32.599Z,7.13
2023-05-01T11:32:00.499Z,6.43
2023-05-01T11:34:27.854Z,6.93
2023-05-01T11:36:54.901Z,6.43
2023-05-01T11:39:22.191Z,7.40
2023-05-01T11:41:49.310Z,6.73
2023-05-01T11:44:17.302Z,5.87
2023-05-01T11:46:44.564Z,7.00
2023-05-01T11:49:11.833Z,7.10
2023-05-01T11:51:38.979Z,7.00
2023-05-01T11:54:10.144Z,7.10
2023-05-01T11:56:38.209Z,7.03
2023-05-01T11:59:20.246Z,6.80
2023-05-01T12:01:47.944Z,7.37
2023-05-01T12:04:24.445Z,6.40
2023-05-01T12:06:51.887Z,6.20
2023-05-01T12:09:20.302Z,6.73
2023-05-01T12:11:51.143Z,6.27
2023-05-01T12:14:20.146Z,6.63
2023-05-01T12:16:47.565Z,6.80
2023-05-01T12:19:15.147Z,7.80
2023-05-01T12:21:42.308Z,7.70
2023-05-01T12:24:16.014Z,6.47
2023-05-01T12:26:43.862Z,7.43
2023-05-01T12:29:11.227Z,6.47
2023-05-01T12:31:46.742Z,6.77
2023-05-01T12:34:13.922Z,6.43
2023-05-01T12:36:41.001Z,6.27
2023-05-01T12:39:09.056Z,7.20
2023-05-01T12:41:42.899Z,6.80
2023-05-01T12:44:17.855Z,6.80
2023-05-01T12:46:45.523Z,6.80
2023-05-01T12:49:18.736Z,7.03
2023-05-01T12:51:49.053Z,7.43
2023-05-01T12:54:20.488Z,7.00
2023-05-01T12:56:47.633Z,7.90
2023-05-01T12:59:21.934Z,7.10
2023-05-01T13:01:49.186Z,7.27
2023-05-01T13:04:22.874Z,6.93
2023-05-01T13:06:50.240Z,7.00
2023-05-01T13:09:17.750Z,7.13
2023-05-01T13:11:56.474Z,6.90
2023-05-01T13:14:23.646Z,8.03
2023-05-01T13:16:51.083Z,7.73
2023-05-01T13:19:28.681Z,7.50
2023-05-01T13:21:56.806Z,7.40
2023-05-01T13:24:23.961Z,8.27
2023-05-01T13:27:04.190Z,7.97
2023-05-01T13:29:32.322Z,7.40
2023-05-01T13:31:59.728Z,7.37
2023-05-01T13:34:30.522Z,7.60
2023-05-01T13:36:57.997Z,8.37
2023-05-01T13:39:25.086Z,8.80
2023-05-01T13:41:52.293Z,8.10
2023-05-01T13:44:19.867Z,9.57
2023-05-01T13:46:47.303Z,8.13
2023-05-01T13:49:14.921Z,9.13
2023-05-01T13:51:43.078Z,9.47
2023-05-01T13:54:10.980Z,9.43
2023-05-01T13:56:38.890Z,9.57
2023-05-01T13:59:07.908Z,10.07
2023-05-01T14:01:47.417Z,9.80
2023-05-01T14:04:16.845Z,8.97
2023-05-01T14:06:44.205Z,10.20
2023-05-01T14:09:11.615Z,9.33
2023-05-01T14:11:48.738Z,9.33
2023-05-01T14:14:16.367Z,10.10
2023-05-01T14:16:44.606Z,9.13
2023-05-01T14:19:15.122Z,9.07
2023-05-01T14:21:42.536Z,10.07
2023-05-01T14:24:10.041Z,9.40
2023-05-01T14:26:42.514Z,9.67
2023-05-01T14:29:15.620Z,8.00
2023-05-01T14:31:43.125Z,8.23
2023-05-01T14:34:10.328Z,8.47
2023-05-01T14:36:37.668Z,8.17
2023-05-01T14:39:05.417Z,8.30
2023-05-01T14:41:34.605Z,8.27
2023-05-01T14:44:02.191Z,8.37
2023-05-01T14:46:33.522Z,8.47
2023-05-01T14:49:01.209Z,8.50
2023-05-01T14:51:28.997Z,8.80
2023-05-01T14:53:56.179Z,8.40
2023-05-01T14:56:23.373Z,9.30
2023-05-01T14:58:50.504Z,9.20
2023-05-01T15:01:18.066Z,8.80
2023-05-01T15:03:45.766Z,8.17
2023-05-01T15:06:13.121Z,7.83
2023-05-01T15:08:40.183Z,8.47
2023-05-01T15:11:07.768Z,8.60
2023-05-01T15:13:34.845Z,9.33
2023-05-01T15:16:01.909Z,8.60
2023-05-01T15:18:28.954Z,8.30
2023-05-01T15:20:56.162Z,9.07
2023-05-01T15:23:24.979Z,9.47
2023-05-01T15:25:51.994Z,9.00
2023-05-01T15:28:19.142Z,9.57
2023-05-01T15:30:46.984Z,8.67
2023-05-01T15:33:16.196Z,9.30
2023-05-01T15:35:46.009Z,9.00
2023-05-01T15:38:13.177Z,9.15
2023-05-01T15:40:40.260Z,8.57
2023-05-01T15:43:07.432Z,8.60
2023-05-01T15:45:34.926Z,7.50
2023-05-01T15:48:02.100Z,8.27
2023-05-01T15:50:29.198Z,8.37
2023-05-01T15:52:56.464Z,8.00
2023-05-01T15:55:23.476Z,8.43
2023-05-01T15:57:50.537Z,8.30
2023-05-01T16:00:18.635Z,8.57
2023-05-01T16:02:45.774Z,7.97
2023-05-01T16:05:14.128Z,8.40
2023-05-01T16:07:41.272Z,8.48
2023-05-01T16:10:09.002Z,6.97
2023-05-01T16:12:36.198Z,7.45
2023-05-01T16:15:04.514Z,8.27
2023-05-01T16:17:33.625Z,8.23
2023-05-01T16:20:02.069Z,7.67
2023-05-01T16:22:29.664Z,7.70
2023-05-01T16:25:00.653Z,7.73
2023-05-01T16:27:27.655Z,8.23
2023-05-01T16:29:54.659Z,8.07
2023-05-01T16:32:23.990Z,7.17
2023-05-01T16:34:51.131Z,5.20
2023-05-01T16:37:19.555Z,4.23
2023-05-01T16:39:47.840Z,3.67
2023-05-01T16:42:15.160Z,3.80
2023-05-01T16:44:42.152Z,4.20
2023-05-01T16:47:11.665Z,3.97
2023-05-01T16:49:40.844Z,4.77
2023-05-01T16:52:10.523Z,5.30
2023-05-01T16:54:37.516Z,4.50
2023-05-01T16:57:04.566Z,5.43
2023-05-01T16:59:31.953Z,5.27
2023-05-01T17:01:59.155Z,5.67
2023-05-01T17:04:27.660Z,5.53
2023-05-01T17:06:56.021Z,5.43
2023-05-01T17:09:23.280Z,5.70
2023-05-01T17:11:50.564Z,5.23
2023-05-01T17:14:17.612Z,5.20
2023-05-01T17:16:45.783Z,4.87
2023-05-01T17:19:13.781Z,4.97
2023-05-01T17:21:41.267Z,5.00
2023-05-01T17:24:08.346Z,4.60
2023-05-01T17:26:35.383Z,4.88
2023-05-01T17:29:03.590Z,4.93
2023-05-01T17:31:30.749Z,4.77
2023-05-01T17:33:57.902Z,4.70
2023-05-01T17:36:24.957Z,4.83
2023-05-01T17:38:53.449Z,4.93
2023-05-01T17:41:20.667Z,4.37
2023-05-01T17:43:47.726Z,5.00
2023-05-01T17:46:15.845Z,4.43
2023-05-01T17:48:43.035Z,5.63
2023-05-01T17:51:10.116Z,4.40
2023-05-01T17:53:37.680Z,4.70
2023-05-01T17:56:04.728Z,4.75
2023-05-01T17:58:31.899Z,4.80
2023-05-01T18:00:59.139Z,4.97
2023-05-01T18:03:26.385Z,5.10
2023-05-01T18:05:53.571Z,5.63
2023-05-01T18:08:20.578Z,5.37
2023-05-01T18:10:47.648Z,5.97
2023-05-01T18:13:15.607Z,5.87
2023-05-01T18:15:42.651Z,6.07
2023-05-01T18:18:09.804Z,6.07
2023-05-01T18:20:37.039Z,6.50
2023-05-01T18:23:04.046Z,6.53
2023-05-01T18:25:31.085Z,6.63
2023-05-01T18:27:58.699Z,7.90
2023-05-01T18:30:25.836Z,7.73
2023-05-01T18:32:53.710Z,7.43
2023-05-01T18:35:20.802Z,7.80
2023-05-01T18:37:47.893Z,7.90
2023-05-01T18:40:15.105Z,7.80
2023-05-01T18:42:42.353Z,7.13
2023-05-01T18:45:10.207Z,6.93
2023-05-01T18:47:37.316Z,7.00
2023-05-01T18:50:05.021Z,7.10
2023-05-01T18:52:32.096Z,7.30
2023-05-01T18:54:59.144Z,7.27
2023-05-01T18:57:27.606Z,7.20
2023-05-01T18:59:54.706Z,7.40
2023-05-01T19:02:21.804Z,7.33
2023-05-01T19:04:57.232Z,7.50
2023-05-01T19:07:24.793Z,7.57
2023-05-01T19:09:51.806Z,8.30
2023-05-01T19:12:18.810Z,7.50
2023-05-01T19:14:45.902Z,7.80
2023-05-01T19:17:12.945Z,8.40
2023-05-01T19:19:39.992Z,7.90
2023-05-01T19:22:07.361Z,8.63
2023-05-01T19:24:34.495Z,7.90
2023-05-01T19:27:03.254Z,9.07
2023-05-01T19:29:33.691Z,10.30
2023-05-01T19:32:00.833Z,9.90
2023-05-01T19:34:28.284Z,9.20
2023-05-01T19:36:56.962Z,10.17
2023-05-01T19:39:24.645Z,12.53
2023-05-01T19:41:51.934Z,10.73
2023-05-01T19:44:18.967Z,12.73
2023-05-01T19:46:46.070Z,12.30
2023-05-01T19:49:13.100Z,10.63
2023-05-01T19:51:40.338Z,10.63
2023-05-01T19:54:07.358Z,10.88
2023-05-01T19:56:34.572Z,9.60
2023-05-01T19:59:01.621Z,9.20
2023-05-01T20:01:31.183Z,9.73
2023-05-01T20:03:58.393Z,11.07
2023-05-01T20:06:26.201Z,9.20
2023-05-01T20:08:53.270Z,7.93
2023-05-01T20:11:20.758Z,8.23
2023-05-01T20:13:47.788Z,8.80
2023-05-01T20:16:14.924Z,9.10
2023-05-01T20:18:42.401Z,8.90
2023-05-01T20:21:09.450Z,9.90
2023-05-01T20:23:36.679Z,9.10
2023-05-01T20:26:04.556Z,8.37
2023-05-01T20:28:31.644Z,9.73
2023-05-01T20:30:58.774Z,9.57
2023-05-01T20:33:25.852Z,9.57
2023-05-01T20:35:52.964Z,8.57
2023-05-01T20:38:19.988Z,9.00
2023-05-01T20:40:47.106Z,8.30
2023-05-01T20:43:14.090Z,9.30
2023-05-01T20:45:41.091Z,8.40
2023-05-01T20:48:08.475Z,7.70
2023-05-01T20:50:35.882Z,9.07
2023-05-01T20:53:03.851Z,9.40
2023-05-01T20:55:30.931Z,8.70
2023-05-01T20:57:58.540Z,8.77
2023-05-01T21:00:25.628Z,9.03
2023-05-01T21:02:52.767Z,9.97
2023-05-01T21:05:20.003Z,10.17
2023-05-01T21:07:47.930Z,10.13
2023-05-01T21:10:16.508Z,12.30
2023-05-01T21:12:43.617Z,11.27
2023-05-01T21:15:13.724Z,10.87
2023-05-01T21:17:43.166Z,11.20
2023-05-01T21:20:18.825Z,12.03
2023-05-01T21:22:47.972Z,10.27
2023-05-01T21:25:19.785Z,10.20
2023-05-01T21:27:46.811Z,11.10
2023-05-01T21:30:15.908Z,10.27
2023-05-01T21:32:43.003Z,10.27
2023-05-01T21:35:13.070Z,10.57
2023-05-01T21:37:44.576Z,10.83
2023-05-01T21:40:13.758Z,15.40
2023-05-01T21:42:40.942Z,18.23
2023-05-01T21:45:09.083Z,13.43
2023-05-01T21:47:38.078Z,11.13
2023-05-01T21:50:08.552Z,12.45
2023-05-01T21:52:35.750Z,10.63
2023-05-01T21:55:03.638Z,9.97
2023-05-01T21:57:31.752Z,10.03
2023-05-01T22:00:01.611Z,10.83
2023-05-01T22:02:31.631Z,9.87
2023-05-01T22:04:58.859Z,11.00
2023-05-01T22:07:25.858Z,11.23
2023-05-01T22:09:52.887Z,12.17
2023-05-01T22:12:19.954Z,11.00
2023-05-01T22:14:47.883Z,10.97
2023-05-01T22:17:15.082Z,11.93
2023-05-01T22:19:42.126Z,12.40
2023-05-01T22:22:09.128Z,12.00
2023-05-01T22:24:36.230Z,14.07
2023-05-01T22:27:03.270Z,12.53
2023-05-01T22:29:30.345Z,11.83
2023-05-01T22:31:57.368Z,11.90
2023-05-01T22:34:24.440Z,11.47
2023-05-01T22:36:51.467Z,12.40
2023-05-01T22:39:18.671Z,10.60
2023-05-01T22:41:45.924Z,10.73
2023-05-01T22:44:12.963Z,10.83
2023-05-01T22:46:40.043Z,11.10
2023-05-01T22:49:09.991Z,11.27
2023-05-01T22:51:37.391Z,11.93
2023-05-01T22:54:04.448Z,12.73
2023-05-01T22:56:31.535Z,11.83
2023-05-01T22:58:58.546Z,13.90
2023-05-01T23:01:27.070Z,11.77
2023-05-01T23:03:55.373Z,13.68
2023-05-01T23:06:22.704Z,10.80
2023-05-01T23:08:53.741Z,10.83
2023-05-01T23:11:21.263Z,11.17
2023-05-01T23:13:50.112Z,10.60
2023-05-01T23:16:18.119Z,10.50
2023-05-01T23:18:45.681Z,11.00
2023-05-01T23:21:17.690Z,9.10
2023-05-01T23:23:45.376Z,10.33
2023-05-01T23:26:30.810Z,11.33
2023-05-01T23:28:59.810Z,11.20
2023-05-01T23:31:27.810Z,10.27
2023-05-01T23:33:55.429Z,10.57
2023-05-01T23:36:22.632Z,10.70
2023-05-01T23:38:49.778Z,10.70
2023-05-01T23:41:17.037Z,11.17
2023-05-01T23:43:48.004Z,10.67
2023-05-01T23:46:15.169Z,10.63
2023-05-01T23:48:42.385Z,11.10
2023-05-01T23:51:09.599Z,9.77
2023-05-01T23:53:36.621Z,11.03
2023-05-01T23:56:03.660Z,10.33
2023-05-01T23:58:30.640Z,9.40
